Avalon, Missouri
Current Conditions -  °F | °C
As of 1:55 AM on Friday 31 Oct 2014 (Local Time) from KGPH Reporting Station
Scattered Clouds Scattered Clouds  
Wind Chill: 50°   Ceiling: Unl
Heat Index: 50°   Visibility: 10mi
Dew Point: 39°   Wind: 21mph
Humidity: 66%   Direction: 340°NNW
Pressure: 30.23"   Gusts: 30mph
Location:  39.66°N, 93.44°W
Report Text: KGPH 310655Z AUTO 34018G26KT 10SM SCT050 10/04 A3023 RMK AO2
Loading
Personal Weather Stations






























Interactive Weather Map
Tropical Storm Tracking
New forecast layout! Learn more

10-Day Weather Forecast

Advertisements
Track Severe Weather on mobile